Time;durP1;ratioP1;P1;durP2;ratioP2;P2;SDS_P1;SDS_P2;PMS_P1;PMS_P2;Temp;Humidity;BMP_temperature;BMP_pressure;BME280_temperature;BME280_humidity;BME280_pressure;Samples;Min_cycle;Max_cycle;Signal;HPM_P1;HPM_P2
2021/11/03 00:01:12;;;;;;;3.95;3.10;;;4.70;99.90;;;;;;5011675;28;20233;-61
2021/11/03 00:03:41;;;;;;;4.28;3.35;;;4.80;99.90;;;;;;5012280;28;20197;-61
2021/11/03 00:06:08;;;;;;;3.30;2.80;;;4.90;99.90;;;;;;5011246;28;20229;-61
2021/11/03 00:08:36;;;;;;;5.32;3.10;;;5.00;99.90;;;;;;5012403;28;20617;-60
2021/11/03 00:11:04;;;;;;;3.00;2.17;;;5.00;99.90;;;;;;5011219;28;20229;-60
2021/11/03 00:13:31;;;;;;;3.53;2.28;;;4.90;99.90;;;;;;5012237;28;20564;-60
2021/11/03 00:15:58;;;;;;;9.30;2.70;;;4.90;99.90;;;;;;5011972;28;20722;-61
2021/11/03 00:18:25;;;;;;;2.55;2.35;;;4.80;99.90;;;;;;5017465;28;20178;-61
2021/11/03 00:20:54;;;;;;;2.38;2.15;;;4.80;99.90;;;;;;5030227;28;20225;-61
2021/11/03 00:23:21;;;;;;;3.00;2.10;;;4.80;99.90;;;;;;5012058;28;20178;-61
2021/11/03 00:25:48;;;;;;;3.40;2.53;;;4.80;99.90;;;;;;5011207;28;20240;-61
2021/11/03 00:28:19;;;;;;;3.30;3.00;;;4.80;99.90;;;;;;5011892;28;20553;-61
2021/11/03 00:30:48;;;;;;;4.38;2.72;;;4.80;99.90;;;;;;4993879;28;20717;-60
2021/11/03 00:33:17;;;;;;;2.88;2.67;;;4.90;99.90;;;;;;5012420;28;20190;-61
2021/11/03 00:35:50;;;;;;;3.70;2.17;;;4.90;99.90;;;;;;5011430;28;20217;-61
2021/11/03 00:38:18;;;;;;;5.00;3.03;;;4.90;99.90;;;;;;5011609;28;20559;-60
2021/11/03 00:40:46;;;;;;;2.53;2.33;;;5.00;99.90;;;;;;5011289;28;20314;-61
2021/11/03 00:43:13;;;;;;;3.38;2.65;;;5.00;99.90;;;;;;5011908;28;20632;-58
2021/11/03 00:45:40;;;;;;;4.05;2.50;;;4.80;99.90;;;;;;5011144;28;20236;-58
2021/11/03 00:48:07;;;;;;;4.30;2.75;;;4.80;99.90;;;;;;5010249;28;20285;-57
2021/11/03 00:50:37;;;;;;;3.78;2.03;;;4.60;99.90;;;;;;5000622;28;20189;-58
2021/11/03 00:53:06;;;;;;;2.88;2.65;;;4.70;99.90;;;;;;5013856;28;20185;-58
2021/11/03 00:55:34;;;;;;;4.30;2.80;;;4.70;99.90;;;;;;5031099;28;20236;-58
2021/11/03 00:58:01;;;;;;;2.97;2.63;;;4.70;99.90;;;;;;5013005;28;20221;-58
2021/11/03 01:00:28;;;;;;;3.05;2.00;;;4.70;99.90;;;;;;5013005;28;20305;-58
2021/11/03 01:02:55;;;;;;;2.13;1.90;;;4.70;99.90;;;;;;5013681;28;20594;-58
2021/11/03 01:05:25;;;;;;;2.65;1.98;;;4.70;99.90;;;;;;5024086;28;20206;-58
2021/11/03 01:07:52;;;;;;;3.10;1.80;;;4.70;99.90;;;;;;5011499;28;20182;-58
2021/11/03 01:10:24;;;;;;;2.03;1.77;;;4.70;99.90;;;;;;4994041;28;20194;-58
2021/11/03 01:12:52;;;;;;;2.58;2.22;;;4.80;99.90;;;;;;4993627;28;20584;-58
2021/11/03 01:15:22;;;;;;;3.80;2.22;;;4.70;99.90;;;;;;5011454;28;20260;-58
2021/11/03 01:17:55;;;;;;;3.22;2.33;;;4.70;99.90;;;;;;5011040;28;20301;-58
2021/11/03 01:20:24;;;;;;;2.00;1.90;;;4.80;99.90;;;;;;5028110;28;20305;-58
2021/11/03 01:22:51;;;;;;;2.60;2.33;;;4.80;99.90;;;;;;5013142;28;20264;-58
2021/11/03 01:25:18;;;;;;;4.30;2.42;;;4.80;99.90;;;;;;5015098;28;20568;-58
2021/11/03 01:27:46;;;;;;;3.38;2.50;;;4.80;99.90;;;;;;5014428;28;20293;-58
2021/11/03 01:30:17;;;;;;;2.55;2.35;;;4.80;99.90;;;;;;5004172;28;20307;-58
2021/11/03 01:32:45;;;;;;;1.98;1.88;;;4.80;99.90;;;;;;5016574;28;20225;-58
2021/11/03 01:35:13;;;;;;;5.47;2.25;;;4.80;99.90;;;;;;5011382;28;20217;-58
2021/11/03 01:37:41;;;;;;;2.92;2.65;;;4.80;99.90;;;;;;5014001;28;20291;-58
2021/11/03 01:40:11;;;;;;;3.95;2.53;;;4.80;99.90;;;;;;5014778;28;20216;-58
2021/11/03 01:42:39;;;;;;;2.65;2.45;;;4.80;99.90;;;;;;4997613;28;20572;-58
2021/11/03 01:45:09;;;;;;;3.42;2.70;;;4.80;99.90;;;;;;5013469;28;20965;-58
2021/11/03 01:47:45;;;;;;;3.30;2.47;;;4.80;99.90;;;;;;4996708;28;20580;-58
2021/11/03 01:50:46;;;;;;;5.38;3.00;;;4.60;99.90;;;;;;4998871;28;20260;-58
2021/11/03 01:53:14;;;;;;;3.45;2.72;;;4.60;99.90;;;;;;4991540;28;20220;-58
2021/11/03 01:56:20;;;;;;;2.78;2.58;;;4.70;99.90;;;;;;4996502;28;20249;-58
2021/11/03 01:59:28;;;;;;;3.00;2.60;;;4.80;99.90;;;;;;4939328;29;20262;-58
2021/11/03 02:01:56;;;;;;;3.45;3.15;;;4.80;99.90;;;;;;4953177;29;20235;-58
2021/11/03 02:04:25;;;;;;;4.05;2.90;;;4.60;99.90;;;;;;5000453;28;20209;-58
2021/11/03 02:06:54;;;;;;;3.45;2.47;;;4.50;99.90;;;;;;5014238;28;20773;-57
2021/11/03 02:09:22;;;;;;;3.88;2.50;;;4.50;99.90;;;;;;5033972;28;20644;-58
2021/11/03 02:11:50;;;;;;;2.50;2.20;;;4.70;99.90;;;;;;5016054;28;20757;-58
2021/11/03 02:14:17;;;;;;;2.40;2.20;;;4.70;99.90;;;;;;5015758;28;20204;-58
2021/11/03 02:16:52;;;;;;;3.47;2.40;;;4.70;99.90;;;;;;5013269;28;20739;-60
2021/11/03 02:19:28;;;;;;;2.72;2.17;;;4.80;99.90;;;;;;5006411;28;20193;-61
2021/11/03 02:22:08;;;;;;;2.75;2.42;;;4.80;99.90;;;;;;4996372;28;20236;-61
2021/11/03 02:25:00;;;;;;;4.20;2.90;;;4.80;99.90;;;;;;4996337;28;20221;-61
2021/11/03 02:27:30;;;;;;;3.47;2.90;;;4.80;99.90;;;;;;5013191;28;20264;-61
2021/11/03 02:29:57;;;;;;;4.00;3.00;;;4.90;99.90;;;;;;5013764;28;20555;-61
2021/11/03 02:32:27;;;;;;;2.15;2.00;;;4.90;99.90;;;;;;4995711;28;20268;-61
2021/11/03 02:34:55;;;;;;;3.28;2.20;;;4.70;99.90;;;;;;5011500;28;20217;-61
2021/11/03 02:37:27;;;;;;;2.80;2.35;;;4.80;99.90;;;;;;5012959;28;20703;-61
2021/11/03 02:40:13;;;;;;;3.20;2.30;;;4.80;99.90;;;;;;5012580;28;20185;-61
2021/11/03 02:42:44;;;;;;;3.97;2.92;;;4.70;99.90;;;;;;5013067;28;20225;-61
2021/11/03 02:45:21;;;;;;;3.53;2.75;;;4.80;99.90;;;;;;5013203;28;20283;-61
2021/11/03 02:47:50;;;;;;;2.17;1.98;;;4.90;99.90;;;;;;5011898;28;20240;-61
2021/11/03 02:50:19;;;;;;;2.78;2.47;;;5.00;99.90;;;;;;5012020;28;20547;-61
2021/11/03 02:52:46;;;;;;;2.20;2.00;;;5.00;99.90;;;;;;5013129;28;20296;-61
2021/11/03 02:55:14;;;;;;;3.47;2.95;;;5.10;99.90;;;;;;5013528;28;20234;-61
2021/11/03 02:57:41;;;;;;;3.30;2.60;;;5.10;99.90;;;;;;5012383;28;20310;-61
2021/11/03 03:00:13;;;;;;;2.60;2.35;;;5.10;99.90;;;;;;5013303;28;20177;-62
2021/11/03 03:02:40;;;;;;;3.17;2.90;;;5.10;99.90;;;;;;4995195;28;20222;-61
2021/11/03 03:05:09;;;;;;;2.97;2.67;;;5.20;99.90;;;;;;5011868;28;20240;-61
2021/11/03 03:07:37;;;;;;;4.00;2.80;;;5.20;99.90;;;;;;5012382;28;20217;-62
2021/11/03 03:10:06;;;;;;;4.50;2.55;;;5.30;99.90;;;;;;5013138;28;20255;-61
2021/11/03 03:12:34;;;;;;;3.72;2.65;;;5.40;99.90;;;;;;4994878;28;20221;-61
2021/11/03 03:15:01;;;;;;;4.55;3.60;;;5.40;99.90;;;;;;5012900;28;20209;-61
2021/11/03 03:17:30;;;;;;;7.40;3.08;;;5.50;99.90;;;;;;5014246;28;20254;-60
2021/11/03 03:19:58;;;;;;;5.10;2.58;;;5.50;99.90;;;;;;5023910;28;20252;-61
2021/11/03 03:22:25;;;;;;;3.83;3.50;;;5.50;99.90;;;;;;5013206;28;20279;-61
2021/11/03 03:24:56;;;;;;;3.65;2.50;;;5.60;99.90;;;;;;4995162;28;20248;-62
2021/11/03 03:27:26;;;;;;;3.17;2.90;;;5.60;99.90;;;;;;4994765;28;20232;-61
2021/11/03 03:29:53;;;;;;;3.22;2.92;;;5.60;99.90;;;;;;5012811;28;20288;-61
2021/11/03 03:32:22;;;;;;;3.65;3.35;;;5.60;99.90;;;;;;5012245;28;20230;-62
2021/11/03 03:34:50;;;;;;;3.55;2.92;;;5.50;99.90;;;;;;5011703;28;20214;-62
2021/11/03 03:37:17;;;;;;;3.13;2.83;;;5.60;99.90;;;;;;4994209;28;20321;-61
2021/11/03 03:39:49;;;;;;;5.38;4.10;;;5.60;99.90;;;;;;4994972;28;20202;-61
2021/11/03 03:42:18;;;;;;;6.97;3.42;;;5.60;99.90;;;;;;4994477;28;20225;-62
2021/11/03 03:44:49;;;;;;;4.35;3.45;;;5.70;99.90;;;;;;5010902;28;20643;-61
2021/11/03 03:47:17;;;;;;;3.92;3.53;;;5.70;99.90;;;;;;4994197;28;20279;-61
2021/11/03 03:49:45;;;;;;;5.00;3.85;;;5.70;99.90;;;;;;4994501;28;20194;-61
2021/11/03 03:52:14;;;;;;;4.32;3.55;;;5.80;99.90;;;;;;4994401;28;20278;-62
2021/11/03 03:54:43;;;;;;;5.60;3.90;;;5.80;99.90;;;;;;4994880;28;20210;-61
2021/11/03 03:57:10;;;;;;;6.03;3.92;;;5.80;99.90;;;;;;4994140;28;20218;-62
2021/11/03 03:59:37;;;;;;;4.88;3.53;;;5.80;99.90;;;;;;5012351;28;20268;-61
2021/11/03 04:02:05;;;;;;;6.20;4.60;;;5.80;99.90;;;;;;5011680;28;20577;-61
2021/11/03 04:04:33;;;;;;;4.55;4.15;;;5.80;99.90;;;;;;5029468;28;20216;-61
2021/11/03 04:07:00;;;;;;;3.90;3.60;;;5.80;99.90;;;;;;5012908;28;20259;-60
2021/11/03 04:09:28;;;;;;;4.53;4.13;;;5.80;99.90;;;;;;5014389;28;20671;-61
2021/11/03 04:11:55;;;;;;;6.20;4.10;;;5.80;99.90;;;;;;5013613;28;20224;-62
2021/11/03 04:14:23;;;;;;;4.47;3.85;;;5.90;99.90;;;;;;5013481;28;20217;-61
2021/11/03 04:16:51;;;;;;;5.05;3.50;;;5.90;99.90;;;;;;5013073;28;20718;-61
2021/11/03 04:19:17;;;;;;;4.32;3.60;;;5.90;99.90;;;;;;5023717;28;20197;-61
2021/11/03 04:21:51;;;;;;;5.30;3.97;;;5.90;99.90;;;;;;5010169;28;20236;-61
2021/11/03 04:24:25;;;;;;;4.43;3.97;;;5.90;99.90;;;;;;4994436;28;20212;-61
2021/11/03 04:26:55;;;;;;;3.70;3.03;;;5.80;99.90;;;;;;5011211;28;20229;-61
2021/11/03 04:29:22;;;;;;;4.93;4.00;;;5.80;99.90;;;;;;4994032;28;20218;-61
2021/11/03 04:31:51;;;;;;;4.85;4.15;;;5.80;99.90;;;;;;4993765;28;20722;-62
2021/11/03 04:34:18;;;;;;;7.20;4.20;;;5.80;99.90;;;;;;5010911;28;20233;-61
2021/11/03 04:36:47;;;;;;;4.22;3.70;;;5.80;99.90;;;;;;5006929;28;20596;-61
2021/11/03 04:39:15;;;;;;;4.45;4.05;;;5.80;99.90;;;;;;4994516;28;20193;-62
2021/11/03 04:41:44;;;;;;;4.72;4.22;;;5.90;99.90;;;;;;5011333;28;20239;-62
2021/11/03 04:44:13;;;;;;;4.80;4.28;;;5.90;99.90;;;;;;5002304;28;20683;-62
2021/11/03 04:46:40;;;;;;;4.15;3.75;;;5.90;99.90;;;;;;4993706;28;20583;-61
2021/11/03 04:49:09;;;;;;;4.80;4.10;;;5.90;99.90;;;;;;4996019;28;20197;-60
2021/11/03 04:51:37;;;;;;;3.45;3.15;;;5.90;99.90;;;;;;5006650;28;20287;-61
2021/11/03 04:54:05;;;;;;;10.38;4.88;;;5.90;99.90;;;;;;5011114;28;20212;-61
2021/11/03 04:56:33;;;;;;;4.28;3.63;;;5.90;99.90;;;;;;5010276;28;20276;-61
2021/11/03 04:59:02;;;;;;;5.13;4.60;;;5.90;99.90;;;;;;4998209;28;20225;-62
2021/11/03 05:01:29;;;;;;;4.30;3.40;;;5.90;99.90;;;;;;4997456;28;20661;-61
2021/11/03 05:03:58;;;;;;;5.18;4.15;;;5.90;99.90;;;;;;4998068;28;20221;-61
2021/11/03 05:06:29;;;;;;;8.00;3.60;;;5.90;99.90;;;;;;4997587;28;20707;-61
2021/11/03 05:08:58;;;;;;;5.22;4.35;;;5.90;99.90;;;;;;4997850;28;20571;-61
2021/11/03 05:11:26;;;;;;;8.07;4.55;;;5.90;99.90;;;;;;4997516;28;20234;-61
2021/11/03 05:13:54;;;;;;;4.43;3.97;;;5.90;99.90;;;;;;5029874;28;20193;-61
2021/11/03 05:16:25;;;;;;;5.18;3.95;;;5.90;99.90;;;;;;5016621;28;20225;-61
2021/11/03 05:18:56;;;;;;;7.07;5.40;;;5.90;99.90;;;;;;5023627;28;20721;-62
2021/11/03 05:21:24;;;;;;;4.80;3.55;;;5.90;99.90;;;;;;5007001;28;20221;-61
2021/11/03 05:23:54;;;;;;;4.60;4.20;;;5.90;99.90;;;;;;4997450;28;20674;-62
2021/11/03 05:26:24;;;;;;;4.45;4.05;;;5.80;99.90;;;;;;5014392;28;20223;-62
2021/11/03 05:28:54;;;;;;;6.25;4.20;;;5.90;99.90;;;;;;5014735;28;20225;-61
2021/11/03 05:31:22;;;;;;;5.20;4.68;;;5.80;99.90;;;;;;5014470;28;20221;-62
2021/11/03 05:33:52;;;;;;;4.40;3.70;;;5.80;99.90;;;;;;5014723;28;20611;-62
2021/11/03 05:36:22;;;;;;;4.95;4.03;;;5.70;99.90;;;;;;5019927;28;20233;-61
2021/11/03 05:38:49;;;;;;;5.03;3.72;;;5.70;99.90;;;;;;5034606;28;20251;-61
2021/11/03 05:41:17;;;;;;;5.80;4.05;;;5.70;99.90;;;;;;5033964;28;20234;-61
2021/11/03 05:43:44;;;;;;;4.32;3.92;;;5.60;99.90;;;;;;5035514;28;20215;-61
2021/11/03 05:46:18;;;;;;;5.40;4.70;;;5.60;99.90;;;;;;5013604;28;20718;-61
2021/11/03 05:48:47;;;;;;;5.38;4.22;;;5.60;99.90;;;;;;5014517;28;20182;-61
2021/11/03 05:51:15;;;;;;;4.13;3.72;;;5.60;99.90;;;;;;5026405;28;20313;-62
2021/11/03 05:53:42;;;;;;;4.60;3.88;;;5.60;99.90;;;;;;5034551;28;20555;-61
2021/11/03 05:56:10;;;;;;;5.32;3.80;;;5.60;99.90;;;;;;5033962;28;20219;-61
2021/11/03 05:58:37;;;;;;;4.70;4.30;;;5.70;99.90;;;;;;5032873;28;20199;-61
2021/11/03 06:01:06;;;;;;;4.68;3.90;;;5.60;99.90;;;;;;5013641;28;20721;-61
2021/11/03 06:03:33;;;;;;;4.68;3.90;;;5.50;99.90;;;;;;5044330;28;20188;-61
2021/11/03 06:06:00;;;;;;;4.60;3.70;;;5.50;99.90;;;;;;5030331;28;20222;-61
2021/11/03 06:08:27;;;;;;;3.33;3.03;;;5.50;99.90;;;;;;5013329;28;20229;-61
2021/11/03 06:10:56;;;;;;;3.65;3.20;;;5.40;99.90;;;;;;5013453;28;20260;-61
2021/11/03 06:13:23;;;;;;;4.13;3.60;;;5.50;99.90;;;;;;5014128;28;20182;-62
2021/11/03 06:15:50;;;;;;;4.28;3.60;;;5.50;99.90;;;;;;5045077;28;20632;-62
2021/11/03 06:18:17;;;;;;;4.57;4.18;;;5.50;99.90;;;;;;5053821;28;20204;-61
2021/11/03 06:20:44;;;;;;;6.70;4.75;;;5.50;99.90;;;;;;5040428;28;20224;-61
2021/11/03 06:23:11;;;;;;;6.07;4.15;;;5.60;99.90;;;;;;5018533;28;20237;-62
2021/11/03 06:25:38;;;;;;;15.52;5.90;;;5.60;99.90;;;;;;5013619;28;20202;-61
2021/11/03 06:28:05;;;;;;;9.32;7.28;;;5.70;99.90;;;;;;5013967;28;20186;-61
2021/11/03 06:30:34;;;;;;;6.80;5.38;;;5.70;99.90;;;;;;5014263;28;20194;-61
2021/11/03 06:33:01;;;;;;;12.95;5.28;;;5.80;99.90;;;;;;5014028;28;20656;-61
2021/11/03 06:35:29;;;;;;;6.93;6.22;;;5.80;99.90;;;;;;5013470;28;20233;-61
2021/11/03 06:37:57;;;;;;;7.03;5.30;;;5.70;99.90;;;;;;5013624;28;20218;-61
2021/11/03 06:40:25;;;;;;;10.82;6.32;;;5.70;99.90;;;;;;5013774;28;20198;-61
2021/11/03 06:42:53;;;;;;;11.90;7.10;;;5.80;99.90;;;;;;5013567;28;20209;-61
2021/11/03 06:45:23;;;;;;;14.40;8.38;;;5.80;99.90;;;;;;4995257;28;20297;-62
2021/11/03 06:47:51;;;;;;;8.10;6.35;;;5.80;99.90;;;;;;5013285;28;20240;-61
2021/11/03 06:50:24;;;;;;;18.15;7.72;;;5.80;99.90;;;;;;5012552;28;20190;-61
2021/11/03 06:52:52;;;;;;;9.70;6.80;;;5.80;99.90;;;;;;5013286;28;20213;-61
2021/11/03 06:55:19;;;;;;;9.23;6.13;;;5.80;99.90;;;;;;5013262;28;20683;-62
2021/11/03 06:57:46;;;;;;;9.90;7.57;;;5.90;99.90;;;;;;5012604;28;20299;-61
2021/11/03 07:00:19;;;;;;;13.27;8.00;;;5.90;99.90;;;;;;5013470;28;20190;-61
2021/11/03 07:02:46;;;;;;;9.77;7.28;;;6.00;99.90;;;;;;5012646;28;20225;-61
2021/11/03 07:05:14;;;;;;;12.60;9.30;;;6.00;99.90;;;;;;5013397;28;20214;-62
2021/11/03 07:07:41;;;;;;;17.30;10.02;;;6.00;99.90;;;;;;4994823;28;20646;-61
2021/11/03 07:10:11;;;;;;;17.30;10.95;;;6.10;99.90;;;;;;5013152;28;20228;-61
2021/11/03 07:12:38;;;;;;;19.27;12.13;;;6.10;99.90;;;;;;5018221;28;20217;-61
2021/11/03 07:15:05;;;;;;;14.98;11.15;;;6.10;99.90;;;;;;5014568;28;20301;-61
2021/11/03 07:17:32;;;;;;;18.20;10.10;;;6.20;99.90;;;;;;5012288;28;20253;-61
2021/11/03 07:19:59;;;;;;;13.95;10.10;;;6.20;99.90;;;;;;5012332;28;20563;-61
2021/11/03 07:22:26;;;;;;;17.92;10.88;;;6.20;99.90;;;;;;4994880;28;20254;-62
2021/11/03 07:24:54;;;;;;;16.80;10.63;;;6.20;99.90;;;;;;4995448;28;20297;-61
2021/11/03 07:27:21;;;;;;;18.70;10.50;;;6.30;99.90;;;;;;5011897;28;20249;-62
2021/11/03 07:29:48;;;;;;;16.50;10.43;;;6.30;99.90;;;;;;5012632;28;20702;-62
2021/11/03 07:32:16;;;;;;;14.45;10.32;;;6.30;99.90;;;;;;5012397;28;20715;-62
2021/11/03 07:34:43;;;;;;;13.90;8.95;;;6.30;99.90;;;;;;5002840;28;20216;-61
2021/11/03 07:37:10;;;;;;;16.35;10.07;;;6.40;99.90;;;;;;5011787;28;20225;-62
2021/11/03 07:39:37;;;;;;;17.85;11.52;;;6.50;99.90;;;;;;5012630;28;20193;-61
2021/11/03 07:42:05;;;;;;;15.20;11.50;;;6.60;99.90;;;;;;5011972;28;20226;-61
2021/11/03 07:44:36;;;;;;;19.45;12.32;;;6.60;99.90;;;;;;5011978;28;20696;-62
2021/11/03 07:47:03;;;;;;;18.02;11.68;;;6.70;99.90;;;;;;5011565;28;20218;-62
2021/11/03 07:49:30;;;;;;;22.08;11.60;;;6.80;99.90;;;;;;5012285;28;20264;-61
2021/11/03 07:51:57;;;;;;;19.33;11.70;;;6.80;99.90;;;;;;5036711;28;20246;-62
2021/11/03 07:54:24;;;;;;;19.08;12.38;;;6.80;99.90;;;;;;5034481;28;20275;-62
2021/11/03 07:56:51;;;;;;;17.30;11.70;;;6.80;99.90;;;;;;5051429;28;20225;-61
2021/11/03 07:59:22;;;;;;;20.63;13.02;;;6.70;99.90;;;;;;5049033;28;20553;-61
2021/11/03 08:01:51;;;;;;;22.00;11.98;;;6.70;99.90;;;;;;5031329;28;20219;-62
2021/11/03 08:04:19;;;;;;;25.35;12.77;;;6.70;99.90;;;;;;5031915;28;20215;-61
2021/11/03 08:06:47;;;;;;;18.02;11.85;;;6.80;99.90;;;;;;5013891;28;20714;-62
2021/11/03 08:09:14;;;;;;;20.85;13.45;;;6.80;99.90;;;;;;5012203;28;20233;-61
2021/11/03 08:11:58;;;;;;;21.27;14.10;;;6.70;99.90;;;;;;5011957;28;20222;-61
2021/11/03 08:14:28;;;;;;;17.98;11.68;;;6.80;99.90;;;;;;5011929;28;20688;-61
2021/11/03 08:17:07;;;;;;;22.27;13.82;;;6.80;99.90;;;;;;5011770;28;20768;-62
2021/11/03 08:19:44;;;;;;;16.85;10.77;;;6.80;99.90;;;;;;5012126;28;20192;-61
2021/11/03 08:22:12;;;;;;;20.63;13.60;;;6.80;99.90;;;;;;5011509;28;20316;-61
2021/11/03 08:24:39;;;;;;;26.80;14.20;;;6.80;99.90;;;;;;5011858;28;20244;-61
2021/11/03 08:27:07;;;;;;;24.88;13.63;;;6.80;99.90;;;;;;5011336;28;20222;-62
2021/11/03 08:29:35;;;;;;;19.67;12.05;;;6.80;99.90;;;;;;5012025;28;20189;-61
2021/11/03 08:32:04;;;;;;;22.27;13.10;;;6.80;99.90;;;;;;5012151;28;20236;-61
2021/11/03 08:34:33;;;;;;;20.88;12.80;;;6.80;99.90;;;;;;5016031;28;20233;-62
2021/11/03 08:37:05;;;;;;;21.70;13.88;;;6.80;99.90;;;;;;5015018;28;20225;-62
2021/11/03 08:39:37;;;;;;;21.20;13.52;;;6.80;99.90;;;;;;5015878;28;20201;-61
2021/11/03 08:42:04;;;;;;;25.77;15.43;;;6.80;99.90;;;;;;5015484;28;20708;-61
2021/11/03 08:44:33;;;;;;;24.98;12.85;;;6.50;99.90;;;;;;5047829;28;20235;-62
2021/11/03 08:47:02;;;;;;;27.08;15.10;;;6.50;99.90;;;;;;5039313;28;20217;-61
2021/11/03 08:49:30;;;;;;;23.80;14.15;;;6.70;99.90;;;;;;5046376;28;20217;-62
2021/11/03 08:51:58;;;;;;;25.30;16.05;;;6.80;99.90;;;;;;5013992;28;20237;-61
2021/11/03 08:54:25;;;;;;;25.80;17.15;;;6.70;99.90;;;;;;5040785;28;20633;-62
2021/11/03 08:57:13;;;;;;;22.38;15.50;;;6.60;99.90;;;;;;5050107;28;20226;-61
2021/11/03 08:59:43;;;;;;;23.00;14.23;;;6.60;99.90;;;;;;5052428;28;20242;-61
2021/11/03 09:02:10;;;;;;;20.38;13.32;;;6.80;99.90;;;;;;5051041;28;20212;-61
2021/11/03 09:04:38;;;;;;;20.50;12.60;;;6.80;99.90;;;;;;5054724;28;20287;-61
2021/11/03 09:07:11;;;;;;;20.65;13.90;;;7.00;99.90;;;;;;5015236;28;20305;-61
2021/11/03 09:09:42;;;;;;;20.48;13.85;;;7.00;99.90;;;;;;5015619;28;20186;-61
2021/11/03 09:12:09;;;;;;;17.95;13.90;;;6.90;99.90;;;;;;5031908;28;20582;-61
2021/11/03 09:14:36;;;;;;;20.88;13.43;;;7.00;99.90;;;;;;5034581;28;20244;-61
2021/11/03 09:17:04;;;;;;;22.00;14.20;;;7.00;99.90;;;;;;5034219;28;20233;-61
2021/11/03 09:19:31;;;;;;;18.13;12.57;;;6.90;99.90;;;;;;5035164;28;20177;-61
2021/11/03 09:21:58;;;;;;;15.43;11.60;;;7.00;99.90;;;;;;5015353;28;20305;-61
2021/11/03 09:24:25;;;;;;;20.67;13.88;;;7.00;99.90;;;;;;5015237;28;20577;-61
2021/11/03 09:26:52;;;;;;;17.42;11.50;;;7.10;99.90;;;;;;5014452;28;20217;-62
2021/11/03 09:29:19;;;;;;;18.08;12.35;;;7.10;99.90;;;;;;4997693;28;20196;-61
2021/11/03 09:31:45;;;;;;;18.63;12.02;;;7.10;99.90;;;;;;5014477;28;20218;-61
2021/11/03 09:34:13;;;;;;;18.23;11.50;;;7.00;99.90;;;;;;5014925;28;20205;-62
2021/11/03 09:36:43;;;;;;;18.65;12.60;;;6.90;99.90;;;;;;5013984;28;20222;-62
2021/11/03 09:39:12;;;;;;;16.33;11.45;;;7.00;99.90;;;;;;5014881;28;20183;-61
2021/11/03 09:41:47;;;;;;;18.80;11.48;;;7.00;99.90;;;;;;5014269;28;20222;-61
2021/11/03 09:44:20;;;;;;;16.08;10.35;;;7.10;99.90;;;;;;5014301;28;20187;-61
2021/11/03 09:47:16;;;;;;;17.02;11.18;;;7.10;99.90;;;;;;5019648;28;20216;-61
2021/11/03 09:49:57;;;;;;;15.43;9.65;;;7.20;99.90;;;;;;5052593;28;20190;-61
2021/11/03 09:52:48;;;;;;;19.17;12.32;;;7.30;99.90;;;;;;5029045;28;20690;-61
2021/11/03 09:55:34;;;;;;;17.85;12.45;;;7.30;99.90;;;;;;5034265;28;20238;-61
2021/11/03 09:58:12;;;;;;;19.65;12.55;;;7.30;99.90;;;;;;5029897;28;20232;-61
2021/11/03 10:00:58;;;;;;;15.65;11.90;;;7.20;99.90;;;;;;5031671;28;20303;-62
2021/11/03 10:03:58;;;;;;;20.48;13.02;;;7.20;99.90;;;;;;5052849;28;20573;-61
2021/11/03 10:06:37;;;;;;;15.27;10.35;;;7.30;99.90;;;;;;5042562;28;20767;-61
2021/11/03 10:09:04;;;;;;;18.15;11.30;;;7.30;99.90;;;;;;5053875;28;20184;-61
2021/11/03 10:11:35;;;;;;;18.23;11.80;;;7.40;99.90;;;;;;5053339;28;20224;-61
2021/11/03 10:14:03;;;;;;;15.48;11.07;;;7.40;99.90;;;;;;5046404;28;20445;-61
2021/11/03 10:16:46;;;;;;;15.23;11.63;;;7.50;99.90;;;;;;5013400;28;20723;-61
2021/11/03 10:19:21;;;;;;;13.68;10.20;;;7.40;99.90;;;;;;5042739;28;20677;-61
2021/11/03 10:21:50;;;;;;;19.50;11.95;;;7.50;99.90;;;;;;5045551;28;20213;-61
2021/11/03 10:24:19;;;;;;;17.30;11.98;;;7.60;99.90;;;;;;5049003;28;20235;-61
2021/11/03 10:26:49;;;;;;;19.40;12.70;;;7.60;99.90;;;;;;4995880;28;20225;-62
2021/11/03 10:29:24;;;;;;;19.23;11.37;;;7.60;99.90;;;;;;5021515;28;20196;-61
2021/11/03 10:32:09;;;;;;;16.52;11.50;;;7.70;99.90;;;;;;5032915;28;20456;-61
2021/11/03 10:34:36;;;;;;;20.30;11.37;;;7.70;99.90;;;;;;5042748;28;20650;-61
2021/11/03 10:37:23;;;;;;;20.83;11.50;;;7.70;99.90;;;;;;5036903;28;21067;-62
2021/11/03 10:39:57;;;;;;;15.30;10.33;;;7.70;99.90;;;;;;5047785;28;20424;-61
2021/11/03 10:42:34;;;;;;;17.90;10.70;;;7.70;99.90;;;;;;5035233;28;20476;-62
2021/11/03 10:45:13;;;;;;;17.93;10.77;;;7.70;99.90;;;;;;5025239;28;20474;-61
2021/11/03 10:47:41;;;;;;;14.03;10.33;;;7.80;99.90;;;;;;5012715;28;20472;-61
2021/11/03 10:50:30;;;;;;;14.55;10.43;;;7.80;99.90;;;;;;5013326;28;20952;-61
2021/11/03 10:53:12;;;;;;;14.02;10.15;;;7.80;99.90;;;;;;4980456;28;20860;-62
2021/11/03 10:55:57;;;;;;;17.60;11.90;;;7.80;99.90;;;;;;5012268;28;20207;-61
2021/11/03 10:58:51;;;;;;;13.53;9.30;;;7.70;99.90;;;;;;5013346;28;20425;-62
2021/11/03 11:01:39;;;;;;;11.17;9.60;;;7.80;99.90;;;;;;5012822;28;20648;-61
2021/11/03 11:04:22;;;;;;;11.47;9.00;;;7.80;99.90;;;;;;5013237;28;20470;-61
2021/11/03 11:07:20;;;;;;;11.77;8.60;;;7.70;99.90;;;;;;5009278;28;20541;-61
2021/11/03 11:10:10;;;;;;;11.40;9.07;;;7.80;99.90;;;;;;5013821;28;20432;-61
2021/11/03 11:12:43;;;;;;;13.83;9.17;;;7.80;99.90;;;;;;4996131;28;20522;-62
2021/11/03 11:15:13;;;;;;;10.80;8.50;;;7.80;99.90;;;;;;5016370;28;20466;-61
2021/11/03 11:17:46;;;;;;;15.10;9.80;;;7.80;99.90;;;;;;5012025;28;20234;-61
2021/11/03 11:20:24;;;;;;;14.37;9.67;;;7.80;99.90;;;;;;5013022;28;20462;-61
2021/11/03 11:23:04;;;;;;;12.55;9.75;;;7.80;99.90;;;;;;5012949;28;20559;-61
2021/11/03 11:25:46;;;;;;;11.75;7.65;;;7.80;99.90;;;;;;5012509;28;20638;-61
2021/11/03 11:28:55;;;;;;;14.60;10.10;;;7.80;99.90;;;;;;5012307;28;20196;-61
2021/11/03 11:31:47;;;;;;;10.27;8.10;;;7.80;99.90;;;;;;5006896;28;20464;-61
2021/11/03 11:34:27;;;;;;;14.53;9.67;;;7.90;99.90;;;;;;5012664;28;20480;-61
2021/11/03 11:37:06;;;;;;;12.43;8.80;;;7.70;99.90;;;;;;5012061;28;20460;-61
2021/11/03 11:39:52;;;;;;;13.87;9.90;;;7.80;99.90;;;;;;5012659;28;20422;-61
2021/11/03 11:42:38;;;;;;;11.52;8.48;;;7.80;99.90;;;;;;4994249;28;20479;-61
2021/11/03 11:45:20;;;;;;;13.93;9.50;;;7.90;99.90;;;;;;5012532;28;20224;-61
2021/11/03 11:48:03;;;;;;;14.57;9.37;;;8.00;99.90;;;;;;5012009;28;20975;-62
2021/11/03 11:50:41;;;;;;;12.67;8.60;;;8.00;99.90;;;;;;5012199;28;20451;-58
2021/11/03 11:53:47;;;;;;;13.97;9.30;;;8.00;99.90;;;;;;5012439;28;20971;-58
2021/11/03 11:56:18;;;;;;;11.37;7.77;;;8.00;99.90;;;;;;4971492;28;21035;-57
2021/11/03 11:59:18;;;;;;;13.63;9.50;;;8.00;99.90;;;;;;5012526;28;20413;-58
2021/11/03 12:01:48;;;;;;;9.77;8.77;;;8.00;99.90;;;;;;5011822;28;20471;-58
2021/11/03 12:04:42;;;;;;;11.77;8.77;;;8.00;99.90;;;;;;5012192;28;20834;-57
2021/11/03 12:07:08;;;;;;;13.47;10.23;;;8.10;99.90;;;;;;5011501;28;20461;-57
2021/11/03 12:09:41;;;;;;;13.37;8.83;;;8.10;99.90;;;;;;5012115;28;20425;-57
2021/11/03 12:12:08;;;;;;;10.63;9.50;;;8.10;99.90;;;;;;5011736;28;20551;-58
2021/11/03 12:14:45;;;;;;;11.00;9.33;;;8.10;99.90;;;;;;5012192;28;20564;-57
2021/11/03 12:17:21;;;;;;;16.33;9.67;;;8.10;99.90;;;;;;4977948;28;20490;-58
2021/11/03 12:19:55;;;;;;;13.32;9.85;;;8.00;99.90;;;;;;5012139;28;20421;-58
2021/11/03 12:22:31;;;;;;;14.60;10.80;;;7.80;99.90;;;;;;5010945;28;20224;-57
2021/11/03 12:25:19;;;;;;;14.40;10.40;;;7.80;99.90;;;;;;5012131;28;20445;-57
2021/11/03 12:28:16;;;;;;;16.07;11.77;;;7.90;99.90;;;;;;5011281;28;20461;-58
2021/11/03 12:30:44;;;;;;;15.27;10.00;;;7.90;99.90;;;;;;5011180;28;20455;-58
2021/11/03 12:33:16;;;;;;;17.57;12.13;;;7.90;99.90;;;;;;5012054;28;20432;-57
2021/11/03 12:35:43;;;;;;;17.13;11.33;;;7.90;99.90;;;;;;5011332;28;20612;-58
2021/11/03 12:38:13;;;;;;;18.97;11.07;;;8.10;99.90;;;;;;4994066;28;20456;-58
2021/11/03 12:40:48;;;;;;;16.63;10.90;;;8.10;99.90;;;;;;5011458;28;20427;-58
2021/11/03 12:43:27;;;;;;;19.37;10.57;;;8.30;99.90;;;;;;5011564;28;20472;-58
2021/11/03 12:46:03;;;;;;;16.20;11.20;;;8.40;99.90;;;;;;5010125;28;20455;-58
2021/11/03 12:48:40;;;;;;;16.33;10.73;;;8.40;99.90;;;;;;4994356;28;20432;-58
2021/11/03 12:51:19;;;;;;;15.40;11.63;;;8.50;99.90;;;;;;4994200;28;20935;-57
2021/11/03 12:54:14;;;;;;;11.80;10.10;;;8.50;99.90;;;;;;5012411;28;20445;-57
2021/11/03 12:56:58;;;;;;;14.63;11.40;;;8.60;99.90;;;;;;5003499;28;20463;-57
2021/11/03 12:59:31;;;;;;;11.67;10.43;;;8.60;99.90;;;;;;5011519;28;20433;-57
2021/11/03 13:02:19;;;;;;;11.90;9.40;;;8.70;99.90;;;;;;5010777;28;20532;-57
2021/11/03 13:04:55;;;;;;;12.83;9.83;;;8.70;99.90;;;;;;4993945;28;20851;-57
2021/11/03 13:07:28;;;;;;;13.47;9.77;;;8.80;99.90;;;;;;5010810;28;20460;-57
2021/11/03 13:10:13;;;;;;;13.33;9.30;;;8.80;99.90;;;;;;5028216;28;20735;-58
2021/11/03 13:13:21;;;;;;;12.27;9.17;;;8.90;99.90;;;;;;5013062;28;20986;-57